Time;durP1;ratioP1;P1;durP2;ratioP2;P2;SDS_P1;SDS_P2;PMS_P1;PMS_P2;Temp;Humidity;BMP_temperature;BMP_pressure;BME280_temperature;BME280_humidity;BME280_pressure;Samples;Min_cycle;Max_cycle;Signal;HPM_P1;HPM_P2
2023/07/23 00:01:41;;;;;;;5.30;4.20;;;18.90;99.90;;;;;;5062650;28;20213;-88
2023/07/23 00:04:06;;;;;;;6.43;4.63;;;18.90;99.90;;;;;;5062177;28;20198;-88
2023/07/23 00:06:33;;;;;;;5.47;4.80;;;18.90;99.90;;;;;;5062637;28;20210;-88
2023/07/23 00:08:59;;;;;;;4.97;4.47;;;18.90;99.90;;;;;;5062054;28;20174;-88
2023/07/23 00:11:24;;;;;;;5.10;4.60;;;18.80;99.90;;;;;;5062754;28;20182;-88
2023/07/23 00:13:50;;;;;;;7.10;4.93;;;18.80;99.90;;;;;;5083189;28;20216;-87
2023/07/23 00:16:16;;;;;;;11.40;4.20;;;18.80;99.90;;;;;;5084176;28;20177;-87
2023/07/23 00:18:41;;;;;;;5.13;4.63;;;18.70;99.90;;;;;;5079090;28;20194;-89
2023/07/23 00:21:07;;;;;;;5.97;4.70;;;18.70;99.90;;;;;;5044663;28;20205;-87
2023/07/23 00:23:33;;;;;;;4.77;4.27;;;18.60;99.90;;;;;;5061611;28;20178;-88
2023/07/23 00:25:58;;;;;;;5.03;4.53;;;18.60;99.90;;;;;;5059641;28;20301;-88
2023/07/23 00:28:24;;;;;;;5.03;4.13;;;18.60;99.90;;;;;;5077613;28;20175;-88
2023/07/23 00:30:52;;;;;;;7.30;4.67;;;18.60;99.90;;;;;;5080892;28;20181;-89
2023/07/23 00:33:20;;;;;;;5.67;4.60;;;18.60;99.90;;;;;;5062378;28;20220;-88
2023/07/23 00:35:46;;;;;;;8.27;4.70;;;18.60;99.90;;;;;;5080210;28;20248;-88
2023/07/23 00:38:11;;;;;;;6.83;4.03;;;18.60;99.90;;;;;;5062012;28;20186;-89
2023/07/23 00:40:37;;;;;;;7.50;4.30;;;18.60;99.90;;;;;;5061746;28;20182;-88
2023/07/23 00:43:03;;;;;;;7.90;4.93;;;18.60;99.90;;;;;;5045263;28;20584;-89
2023/07/23 00:45:28;;;;;;;6.50;5.07;;;18.60;99.90;;;;;;5061754;28;20205;-89
2023/07/23 00:47:54;;;;;;;6.83;4.67;;;18.70;99.90;;;;;;5061941;28;20193;-88
2023/07/23 00:50:20;;;;;;;10.20;4.90;;;18.60;99.90;;;;;;5062192;28;20177;-88
2023/07/23 00:52:46;;;;;;;8.60;5.03;;;18.60;99.90;;;;;;5061719;28;20174;-89
2023/07/23 00:55:11;;;;;;;7.57;5.33;;;18.60;99.90;;;;;;5060701;28;20209;-89
2023/07/23 00:57:37;;;;;;;5.63;4.77;;;18.50;99.90;;;;;;5061067;28;20535;-89
2023/07/23 01:00:07;;;;;;;5.53;4.90;;;18.50;99.90;;;;;;5078930;28;20178;-89
2023/07/23 01:02:33;;;;;;;6.50;5.10;;;18.50;99.90;;;;;;5060872;28;20196;-89
2023/07/23 01:04:59;;;;;;;5.50;4.73;;;18.40;99.90;;;;;;5079908;22;20214;-72
2023/07/23 01:07:27;;;;;;;6.70;5.17;;;18.40;99.90;;;;;;5073952;28;20162;-72
2023/07/23 01:09:53;;;;;;;5.33;4.83;;;18.40;99.90;;;;;;5068578;28;20560;-73
2023/07/23 01:12:19;;;;;;;5.13;4.40;;;18.40;99.90;;;;;;5053266;28;20185;-72
2023/07/23 01:14:45;;;;;;;5.70;4.30;;;18.40;99.90;;;;;;5053553;28;20182;-72
2023/07/23 01:17:12;;;;;;;5.23;4.73;;;18.40;99.90;;;;;;5053908;28;20167;-73
2023/07/23 01:19:38;;;;;;;7.47;4.80;;;18.40;99.90;;;;;;5053514;28;20257;-72
2023/07/23 01:22:07;;;;;;;8.07;4.60;;;18.40;99.90;;;;;;5052759;28;20269;-72
2023/07/23 01:24:35;;;;;;;4.53;4.13;;;18.40;99.90;;;;;;5053212;28;20166;-71
2023/07/23 01:27:01;;;;;;;5.63;4.83;;;18.40;99.90;;;;;;5053094;28;20258;-71
2023/07/23 01:29:27;;;;;;;6.27;4.90;;;18.40;99.90;;;;;;5053144;28;20171;-72
2023/07/23 01:31:53;;;;;;;4.83;4.23;;;18.40;99.90;;;;;;5052764;28;20185;-72
2023/07/23 01:34:19;;;;;;;5.63;5.13;;;18.40;99.90;;;;;;5053266;28;20554;-72
2023/07/23 01:36:46;;;;;;;5.80;4.80;;;18.40;99.90;;;;;;5053004;28;20210;-71
2023/07/23 01:39:12;;;;;;;6.73;4.97;;;18.40;99.90;;;;;;5052847;28;20186;-71
2023/07/23 01:41:38;;;;;;;7.50;4.70;;;18.40;99.90;;;;;;5052626;28;20669;-71
2023/07/23 01:44:04;;;;;;;6.17;4.73;;;18.40;99.90;;;;;;5052585;28;20178;-72
2023/07/23 01:46:30;;;;;;;6.23;5.00;;;18.30;99.90;;;;;;5052805;28;20230;-72
2023/07/23 01:48:56;;;;;;;9.43;4.90;;;18.40;99.90;;;;;;5053058;28;20236;-72
2023/07/23 01:51:21;;;;;;;5.33;4.83;;;18.40;99.90;;;;;;5052428;28;20194;-72
2023/07/23 01:53:47;;;;;;;5.40;4.90;;;18.40;99.90;;;;;;5052440;28;20171;-71
2023/07/23 01:56:13;;;;;;;5.40;4.90;;;18.30;99.90;;;;;;5052597;28;20193;-71
2023/07/23 01:58:38;;;;;;;6.03;4.90;;;18.30;99.90;;;;;;5051877;28;20250;-72
2023/07/23 02:01:04;;;;;;;7.33;5.50;;;18.30;99.90;;;;;;5052411;28;20547;-72
2023/07/23 02:03:30;;;;;;;8.33;5.27;;;18.30;99.90;;;;;;5052330;28;20167;-72
2023/07/23 02:06:00;;;;;;;5.50;5.00;;;18.30;99.90;;;;;;5052042;28;20213;-71
2023/07/23 02:08:26;;;;;;;8.83;5.70;;;18.40;99.90;;;;;;5052433;28;20194;-72
2023/07/23 02:11:00;;;;;;;5.27;4.70;;;18.30;99.90;;;;;;5051866;28;20214;-71
2023/07/23 02:13:29;;;;;;;6.20;5.53;;;18.30;99.90;;;;;;5052042;28;20620;-71
2023/07/23 02:15:55;;;;;;;5.10;4.70;;;18.30;99.90;;;;;;5052072;28;20627;-71
2023/07/23 02:18:20;;;;;;;5.80;5.20;;;18.30;99.90;;;;;;5052380;28;20262;-72
2023/07/23 02:20:46;;;;;;;5.40;4.90;;;18.30;99.90;;;;;;5052107;28;20198;-71
2023/07/23 02:23:13;;;;;;;10.73;5.90;;;18.20;99.90;;;;;;5051841;28;20171;-71
2023/07/23 02:25:39;;;;;;;8.30;5.43;;;18.20;99.90;;;;;;5050822;28;20256;-71
2023/07/23 02:28:07;;;;;;;6.00;4.90;;;18.20;99.90;;;;;;5051849;28;20171;-72
2023/07/23 02:30:33;;;;;;;7.67;5.97;;;18.20;99.90;;;;;;5050789;28;20611;-72
2023/07/23 02:32:59;;;;;;;5.50;5.00;;;18.20;99.90;;;;;;5051692;28;20232;-71
2023/07/23 02:35:24;;;;;;;5.70;4.97;;;18.10;99.90;;;;;;5051926;28;20193;-72
2023/07/23 02:37:50;;;;;;;6.17;5.40;;;18.10;99.90;;;;;;5051745;28;20170;-70
2023/07/23 02:40:16;;;;;;;7.83;5.27;;;18.10;99.90;;;;;;5051783;28;20187;-72
2023/07/23 02:42:41;;;;;;;7.40;5.80;;;18.10;99.90;;;;;;5051558;28;20638;-71
2023/07/23 02:45:07;;;;;;;6.60;5.13;;;18.10;99.90;;;;;;5051831;28;20195;-73
2023/07/23 02:47:33;;;;;;;7.03;5.67;;;18.10;99.90;;;;;;5051768;28;20158;-71
2023/07/23 02:49:58;;;;;;;8.77;5.43;;;18.10;99.90;;;;;;5051391;28;20198;-72
2023/07/23 02:52:24;;;;;;;5.60;5.00;;;18.10;99.90;;;;;;5051436;28;20275;-71
2023/07/23 02:54:49;;;;;;;6.57;5.00;;;18.10;99.90;;;;;;5051704;28;20171;-72
2023/07/23 02:57:15;;;;;;;6.80;5.33;;;18.10;99.90;;;;;;5051649;28;20269;-72
2023/07/23 02:59:40;;;;;;;5.50;4.57;;;18.10;99.90;;;;;;5051713;28;20209;-71
2023/07/23 03:02:06;;;;;;;10.07;5.70;;;18.10;99.90;;;;;;5051193;28;20659;-72
2023/07/23 03:04:32;;;;;;;5.67;4.97;;;18.10;99.90;;;;;;5050090;28;20233;-72
2023/07/23 03:06:57;;;;;;;7.10;5.23;;;18.10;99.90;;;;;;5051367;28;20695;-72
2023/07/23 03:09:23;;;;;;;6.00;5.30;;;18.00;99.90;;;;;;5050779;28;20171;-70
2023/07/23 03:11:49;;;;;;;6.00;5.40;;;18.00;99.90;;;;;;5051098;28;20175;-69
2023/07/23 03:14:14;;;;;;;5.60;5.00;;;18.00;99.90;;;;;;5051387;28;20179;-72
2023/07/23 03:16:40;;;;;;;8.33;5.30;;;18.00;99.90;;;;;;5051514;28;20175;-72
2023/07/23 03:19:05;;;;;;;12.33;5.90;;;17.90;99.90;;;;;;5051289;28;20174;-72
2023/07/23 03:21:31;;;;;;;6.70;5.20;;;17.90;99.90;;;;;;5051148;28;20203;-72
2023/07/23 03:23:56;;;;;;;6.40;4.67;;;18.00;99.90;;;;;;5051082;28;20197;-72
2023/07/23 03:26:22;;;;;;;5.23;4.70;;;18.00;99.90;;;;;;5051446;28;20235;-72
2023/07/23 03:28:48;;;;;;;6.17;4.60;;;18.00;99.90;;;;;;5051252;28;20538;-71
2023/07/23 03:31:13;;;;;;;5.30;4.70;;;18.00;99.90;;;;;;5050975;28;20201;-72
2023/07/23 03:33:39;;;;;;;8.07;5.40;;;18.00;99.90;;;;;;5049703;28;20634;-71
2023/07/23 03:36:06;;;;;;;6.40;4.70;;;18.00;99.90;;;;;;5050924;28;20190;-72
2023/07/23 03:38:32;;;;;;;5.30;4.70;;;18.00;99.90;;;;;;5051219;28;20224;-72
2023/07/23 03:40:57;;;;;;;6.20;4.87;;;18.00;99.90;;;;;;5050948;28;20186;-71
2023/07/23 03:43:23;;;;;;;5.37;4.87;;;18.10;99.90;;;;;;5050835;28;20213;-72
2023/07/23 03:45:48;;;;;;;5.33;4.83;;;18.10;99.90;;;;;;5051328;28;20210;-71
2023/07/23 03:48:14;;;;;;;5.10;4.70;;;18.20;99.90;;;;;;5050817;28;20171;-71
2023/07/23 03:50:40;;;;;;;8.10;5.10;;;18.30;99.90;;;;;;5051012;28;20240;-72
2023/07/23 03:53:05;;;;;;;4.73;4.30;;;18.30;99.90;;;;;;5050820;28;20250;-72
2023/07/23 03:55:32;;;;;;;4.47;4.07;;;18.40;99.90;;;;;;5051043;28;20195;-71
2023/07/23 03:57:58;;;;;;;5.63;5.13;;;18.50;99.90;;;;;;5050703;28;20646;-71
2023/07/23 04:00:24;;;;;;;5.97;4.70;;;18.60;99.90;;;;;;5050867;28;20221;-71
2023/07/23 04:02:49;;;;;;;8.10;5.23;;;18.70;99.90;;;;;;5050622;28;20700;-72
2023/07/23 04:05:15;;;;;;;5.57;4.90;;;18.80;99.90;;;;;;5050634;28;20309;-71
2023/07/23 04:07:40;;;;;;;5.00;4.50;;;18.90;99.90;;;;;;5050899;28;20167;-71
2023/07/23 04:10:06;;;;;;;4.77;4.27;;;19.00;99.90;;;;;;5049814;28;20187;-71
2023/07/23 04:12:34;;;;;;;5.73;4.70;;;19.00;99.90;;;;;;5050585;28;20195;-72
2023/07/23 04:15:02;;;;;;;4.60;4.20;;;19.10;99.90;;;;;;5050766;28;20205;-72
2023/07/23 04:17:27;;;;;;;3.90;3.60;;;19.10;99.90;;;;;;5050934;28;20178;-71
2023/07/23 04:19:53;;;;;;;4.55;4.15;;;19.10;99.90;;;;;;5050458;28;20206;-71
2023/07/23 04:22:19;;;;;;;4.60;4.20;;;19.10;99.90;;;;;;5051783;28;20206;-71
2023/07/23 04:24:44;;;;;;;4.83;4.43;;;19.10;99.90;;;;;;5054423;28;20197;-72
2023/07/23 04:27:10;;;;;;;6.00;5.03;;;19.20;99.90;;;;;;5054330;28;20166;-71
2023/07/23 04:29:36;;;;;;;7.03;4.68;;;19.20;99.90;;;;;;5054407;28;20625;-71
2023/07/23 04:32:01;;;;;;;5.17;4.63;;;19.20;99.90;;;;;;5053733;28;20173;-70
2023/07/23 04:34:27;;;;;;;5.03;4.20;;;19.20;99.90;;;;;;5054267;28;20182;-71
2023/07/23 04:36:52;;;;;;;4.70;4.20;;;19.30;99.90;;;;;;5054068;28;20170;-71
2023/07/23 04:39:19;;;;;;;7.68;4.93;;;19.30;99.90;;;;;;5054168;28;20595;-71
2023/07/23 04:41:45;;;;;;;6.18;4.63;;;19.30;99.90;;;;;;5053796;28;20190;-71
2023/07/23 04:44:11;;;;;;;5.73;4.97;;;19.20;99.90;;;;;;5053810;28;20197;-71
2023/07/23 04:46:36;;;;;;;4.83;4.43;;;19.20;99.90;;;;;;5053898;28;20203;-71
2023/07/23 04:49:02;;;;;;;10.98;3.92;;;19.30;99.90;;;;;;5053808;28;20246;-71
2023/07/23 04:51:28;;;;;;;4.53;4.13;;;19.30;99.90;;;;;;5053687;28;20187;-70
2023/07/23 04:53:53;;;;;;;4.20;3.90;;;19.30;99.90;;;;;;5053601;28;20216;-71
2023/07/23 04:56:19;;;;;;;4.75;3.78;;;19.40;99.90;;;;;;5053951;28;20542;-71
2023/07/23 04:58:45;;;;;;;5.05;4.55;;;19.40;99.90;;;;;;5053772;28;20178;-71
2023/07/23 05:01:12;;;;;;;4.53;3.97;;;19.40;99.90;;;;;;5053479;28;20194;-70
2023/07/23 05:03:39;;;;;;;4.32;3.97;;;19.40;99.90;;;;;;5053489;28;20195;-71
2023/07/23 05:06:05;;;;;;;4.90;3.60;;;19.50;99.90;;;;;;5053469;28;20202;-71
2023/07/23 05:08:33;;;;;;;3.97;3.67;;;19.40;99.90;;;;;;5053889;28;20626;-71
2023/07/23 05:11:00;;;;;;;4.83;3.73;;;19.40;99.90;;;;;;5052900;28;20195;-71
2023/07/23 05:13:25;;;;;;;3.70;3.40;;;19.50;99.90;;;;;;5052207;28;20178;-71
2023/07/23 05:15:51;;;;;;;4.10;3.80;;;19.50;99.90;;;;;;5053373;28;20178;-71
2023/07/23 05:18:17;;;;;;;4.27;3.87;;;19.60;99.90;;;;;;5053323;28;20251;-72
2023/07/23 05:20:43;;;;;;;6.33;4.00;;;19.60;99.90;;;;;;5053288;28;20244;-71
2023/07/23 05:23:08;;;;;;;5.60;5.00;;;19.60;99.90;;;;;;5052965;28;20175;-70
2023/07/23 05:25:34;;;;;;;4.20;3.80;;;19.70;99.90;;;;;;5053232;28;20195;-71
2023/07/23 05:28:00;;;;;;;3.83;3.53;;;19.70;99.90;;;;;;5052878;28;20703;-70
2023/07/23 05:30:26;;;;;;;4.27;3.50;;;19.80;99.90;;;;;;5053168;28;20585;-71
2023/07/23 05:32:52;;;;;;;3.45;3.15;;;19.90;99.90;;;;;;5051087;28;20175;-71
2023/07/23 05:35:17;;;;;;;3.42;3.13;;;19.90;99.90;;;;;;5052335;28;20244;-71
2023/07/23 05:37:43;;;;;;;3.47;3.17;;;20.00;99.90;;;;;;5053031;28;20182;-70
2023/07/23 05:40:09;;;;;;;3.58;3.28;;;20.00;99.90;;;;;;5052710;28;20563;-71
2023/07/23 05:42:35;;;;;;;3.80;3.50;;;20.10;99.90;;;;;;5052716;28;20175;-71
2023/07/23 05:45:00;;;;;;;4.47;3.42;;;20.20;99.90;;;;;;5052635;28;20186;-70
2023/07/23 05:47:26;;;;;;;3.97;3.30;;;20.20;99.90;;;;;;5052832;28;20174;-71
2023/07/23 05:49:52;;;;;;;4.03;3.72;;;20.30;99.90;;;;;;5052701;28;20194;-71
2023/07/23 05:52:17;;;;;;;3.78;3.00;;;20.40;99.90;;;;;;5052377;28;20308;-70
2023/07/23 05:54:43;;;;;;;4.18;3.28;;;20.50;99.90;;;;;;5052800;28;20221;-71
2023/07/23 05:57:08;;;;;;;4.13;3.78;;;20.50;99.90;;;;;;5052705;28;20167;-71
2023/07/23 05:59:34;;;;;;;4.25;3.85;;;20.60;99.90;;;;;;5052577;28;20163;-70
2023/07/23 06:01:59;;;;;;;3.60;3.30;;;20.70;99.90;;;;;;5052018;28;20666;-71
2023/07/23 06:04:25;;;;;;;5.32;4.00;;;20.70;99.90;;;;;;5051223;28;20182;-71
2023/07/23 06:06:51;;;;;;;3.85;3.45;;;20.70;99.90;;;;;;5052394;28;20700;-71
2023/07/23 06:09:20;;;;;;;3.72;3.35;;;20.70;99.90;;;;;;5052114;28;20653;-71
2023/07/23 06:11:45;;;;;;;3.80;3.60;;;20.70;99.90;;;;;;5052191;28;20565;-71
2023/07/23 06:14:11;;;;;;;3.65;3.35;;;20.70;99.90;;;;;;5050796;28;20175;-71
2023/07/23 06:16:36;;;;;;;5.13;3.72;;;20.60;99.90;;;;;;5052295;28;20175;-71
2023/07/23 06:19:02;;;;;;;5.00;4.15;;;20.60;99.90;;;;;;5050834;28;20637;-71
2023/07/23 06:21:27;;;;;;;4.85;4.10;;;20.60;99.90;;;;;;5052005;28;20216;-72
2023/07/23 06:23:53;;;;;;;4.97;3.70;;;20.60;99.90;;;;;;5051976;28;20170;-71
2023/07/23 06:26:18;;;;;;;3.38;3.17;;;20.50;99.90;;;;;;5052193;28;20202;-71
2023/07/23 06:28:44;;;;;;;4.53;3.80;;;20.60;99.90;;;;;;5052097;28;20179;-72
2023/07/23 06:31:10;;;;;;;8.50;4.60;;;20.60;99.90;;;;;;5051819;28;20466;-70
2023/07/23 06:33:35;;;;;;;3.47;3.28;;;20.60;99.90;;;;;;5051742;28;20194;-71
2023/07/23 06:36:01;;;;;;;4.53;4.13;;;20.60;99.90;;;;;;5051725;28;20167;-71
2023/07/23 06:38:27;;;;;;;4.63;3.90;;;20.70;99.90;;;;;;5051979;28;20174;-71
2023/07/23 06:40:54;;;;;;;4.90;3.20;;;20.70;99.90;;;;;;5051870;28;20289;-71
2023/07/23 06:43:20;;;;;;;4.35;3.22;;;20.80;99.90;;;;;;5051885;28;20175;-71
2023/07/23 06:45:47;;;;;;;3.50;3.20;;;20.80;99.90;;;;;;5051442;28;20206;-72
2023/07/23 06:48:14;;;;;;;4.28;3.80;;;20.80;99.90;;;;;;5051592;28;20312;-71
2023/07/23 06:50:40;;;;;;;3.42;3.13;;;20.90;99.90;;;;;;5051700;28;20685;-71
2023/07/23 06:53:06;;;;;;;5.00;3.65;;;21.00;99.90;;;;;;5051307;28;20171;-70
2023/07/23 06:55:55;;;;;;;5.38;3.92;;;21.10;99.90;;;;;;5051693;28;20677;-69
2023/07/23 06:58:21;;;;;;;4.10;3.40;;;21.00;99.90;;;;;;5051428;28;20186;-72
2023/07/23 07:00:46;;;;;;;3.78;3.47;;;21.10;99.90;;;;;;5051551;28;20194;-71
2023/07/23 07:03:12;;;;;;;3.90;3.40;;;21.10;99.90;;;;;;5051420;28;20269;-71
2023/07/23 07:05:38;;;;;;;3.97;3.55;;;21.00;99.90;;;;;;5051380;28;20217;-70
2023/07/23 07:08:04;;;;;;;3.90;3.60;;;20.80;99.90;;;;;;5051455;28;20513;-72
2023/07/23 07:10:29;;;;;;;4.13;3.13;;;20.60;99.90;;;;;;5050857;28;20205;-71
2023/07/23 07:12:55;;;;;;;5.70;3.45;;;20.40;99.90;;;;;;5051057;28;20618;-71
2023/07/23 07:15:20;;;;;;;5.22;3.38;;;20.20;99.90;;;;;;5051684;28;20189;-71
2023/07/23 07:20:14;;;;;;;3.58;3.30;;;20.10;99.90;;;;;;5088824;28;20568;-73
2023/07/23 07:22:39;;;;;;;3.93;3.60;;;20.10;99.90;;;;;;5091376;28;20165;-74
2023/07/23 07:25:05;;;;;;;5.55;3.63;;;20.10;99.90;;;;;;5091430;28;20272;-74
2023/07/23 07:27:31;;;;;;;3.73;3.43;;;20.20;99.90;;;;;;5091458;28;20652;-74
2023/07/23 07:29:57;;;;;;;6.85;4.03;;;20.30;99.90;;;;;;5073383;28;20176;-74
2023/07/23 07:32:22;;;;;;;5.63;3.85;;;20.50;99.90;;;;;;5091395;28;20198;-74
2023/07/23 07:34:48;;;;;;;4.30;3.90;;;20.60;99.90;;;;;;5091642;28;20180;-74
2023/07/23 07:37:13;;;;;;;3.88;3.58;;;20.60;99.90;;;;;;5091280;28;20173;-74
2023/07/23 07:39:40;;;;;;;4.28;3.78;;;20.50;99.90;;;;;;5073637;28;20234;-74
2023/07/23 07:42:06;;;;;;;4.17;3.67;;;20.30;99.90;;;;;;5073795;28;20173;-74
2023/07/23 07:44:32;;;;;;;3.93;3.63;;;19.90;99.90;;;;;;5091433;28;20166;-75
2023/07/23 07:46:58;;;;;;;5.07;3.50;;;19.70;99.90;;;;;;5073037;28;20201;-73
2023/07/23 07:49:24;;;;;;;3.63;3.37;;;19.50;99.90;;;;;;5091260;28;20599;-74
2023/07/23 07:51:49;;;;;;;3.90;3.60;;;19.30;99.90;;;;;;5073084;28;20260;-74
2023/07/23 07:54:15;;;;;;;4.40;3.90;;;19.10;99.90;;;;;;5090959;28;20170;-71
2023/07/23 07:56:43;;;;;;;5.00;3.80;;;19.00;99.90;;;;;;5073543;28;20181;-72
2023/07/23 07:59:12;;;;;;;4.03;3.63;;;18.90;99.90;;;;;;5076880;28;20703;-72
2023/07/23 08:01:37;;;;;;;4.10;3.80;;;18.70;99.90;;;;;;5076807;28;20523;-71
2023/07/23 08:04:07;;;;;;;5.13;4.13;;;18.50;99.90;;;;;;5094816;28;20188;-73
2023/07/23 08:06:33;;;;;;;3.80;3.50;;;18.30;99.90;;;;;;5094972;28;20279;-73
2023/07/23 08:09:02;;;;;;;4.90;4.20;;;18.20;99.90;;;;;;5094241;28;20208;-71
2023/07/23 08:11:29;;;;;;;4.30;3.90;;;18.00;99.90;;;;;;5094691;28;20173;-73
2023/07/23 08:13:55;;;;;;;4.40;4.00;;;17.90;99.90;;;;;;5076458;28;20239;-73
2023/07/23 08:16:21;;;;;;;4.43;3.80;;;17.70;99.90;;;;;;5094591;28;20174;-73
2023/07/23 08:18:47;;;;;;;4.70;4.10;;;17.60;99.90;;;;;;5076487;28;20522;-73
2023/07/23 08:21:13;;;;;;;3.93;3.63;;;17.50;99.90;;;;;;5094546;28;20205;-74
2023/07/23 08:23:40;;;;;;;4.33;3.93;;;17.40;99.90;;;;;;5094564;28;20174;-74
2023/07/23 08:26:06;;;;;;;4.97;4.13;;;17.20;99.90;;;;;;5094330;28;20288;-74
2023/07/23 08:28:38;;;;;;;8.03;4.23;;;17.10;99.90;;;;;;5094521;28;20185;-73
2023/07/23 08:31:04;;;;;;;4.70;4.30;;;17.00;99.90;;;;;;5094785;28;20295;-73
2023/07/23 08:33:32;;;;;;;5.23;4.07;;;17.00;99.90;;;;;;5094487;28;20256;-73
2023/07/23 08:35:59;;;;;;;4.60;4.20;;;17.00;99.90;;;;;;5094364;28;20581;-73
2023/07/23 08:38:25;;;;;;;5.40;3.93;;;17.00;99.90;;;;;;5094371;28;20568;-73
2023/07/23 08:41:02;;;;;;;4.37;4.07;;;17.00;99.90;;;;;;5094464;28;20170;-74
2023/07/23 08:43:49;;;;;;;5.27;4.20;;;17.20;99.90;;;;;;5094051;28;20184;-73
2023/07/23 08:46:26;;;;;;;4.40;4.00;;;17.30;99.90;;;;;;5094025;28;20193;-73
2023/07/23 08:49:06;;;;;;;4.57;4.13;;;17.30;99.90;;;;;;5094265;28;20229;-74
2023/07/23 08:51:46;;;;;;;4.73;3.97;;;17.40;99.90;;;;;;5094174;28;20192;-73
2023/07/23 08:54:14;;;;;;;4.87;3.57;;;17.50;99.90;;;;;;5093994;28;20165;-74
2023/07/23 08:56:41;;;;;;;4.57;3.97;;;17.60;99.90;;;;;;5094064;28;20174;-73
2023/07/23 08:59:08;;;;;;;4.53;4.07;;;17.70;99.90;;;;;;5075744;28;20197;-73
2023/07/23 09:01:36;;;;;;;4.40;4.00;;;18.00;99.90;;;;;;5093854;28;20251;-74
2023/07/23 09:04:04;;;;;;;4.67;3.40;;;18.20;99.90;;;;;;5093798;28;20174;-72
2023/07/23 09:06:31;;;;;;;3.77;3.47;;;18.50;99.90;;;;;;5093891;28;20197;-72
2023/07/23 09:09:04;;;;;;;5.30;4.07;;;18.70;85.10;;;;;;5093568;28;20184;-72
2023/07/23 09:11:31;;;;;;;3.60;3.30;;;18.70;56.20;;;;;;5093782;28;20162;-74
2023/07/23 09:14:07;;;;;;;3.50;3.20;;;18.80;25.20;;;;;;5093663;28;20169;-73
2023/07/23 09:16:38;;;;;;;3.63;3.33;;;18.90;25.00;;;;;;5076014;28;20189;-73
2023/07/23 09:19:05;;;;;;;4.13;3.73;;;19.00;13.70;;;;;;5093396;28;20213;-74
2023/07/23 09:21:30;;;;;;;5.73;4.10;;;19.00;1.00;;;;;;5093487;28;20177;-73
2023/07/23 09:23:57;;;;;;;3.47;3.17;;;19.10;1.00;;;;;;5093389;28;20183;-72
2023/07/23 09:26:27;;;;;;;3.73;3.20;;;19.20;1.00;;;;;;5093361;28;20611;-73
2023/07/23 09:28:56;;;;;;;3.73;3.43;;;19.40;1.00;;;;;;5093436;28;20680;-71
2023/07/23 09:31:26;;;;;;;3.57;3.27;;;19.60;1.00;;;;;;5093210;28;20169;-73
2023/07/23 09:33:56;;;;;;;3.30;3.10;;;19.60;1.00;;;;;;5075431;28;20686;-73
2023/07/23 09:36:23;;;;;;;3.40;3.20;;;19.70;1.00;;;;;;5075209;28;20174;-71
2023/07/23 09:39:05;;;;;;;3.53;3.20;;;19.70;1.00;;;;;;5093310;28;20573;-74
2023/07/23 09:41:33;;;;;;;3.63;3.23;;;19.80;1.00;;;;;;5093049;28;20250;-72
2023/07/23 09:44:05;;;;;;;3.73;3.43;;;19.70;1.00;;;;;;5093056;28;20174;-73
2023/07/23 09:46:32;;;;;;;3.30;3.10;;;19.70;99.90;;;;;;5093139;28;20200;-72
2023/07/23 09:48:58;;;;;;;4.03;3.67;;;19.70;99.90;;;;;;5071464;28;20678;-73
2023/07/23 09:51:24;;;;;;;3.15;2.95;;;19.70;99.90;;;;;;5083830;28;20162;-73
2023/07/23 09:53:50;;;;;;;3.57;3.30;;;19.80;99.90;;;;;;5074264;28;20170;-73
2023/07/23 09:56:17;;;;;;;3.40;3.20;;;19.90;99.90;;;;;;5078049;28;20661;-70
2023/07/23 09:58:44;;;;;;;3.20;3.00;;;19.90;99.90;;;;;;5072735;28;20190;-72
2023/07/23 10:01:11;;;;;;;3.27;3.03;;;19.70;99.90;;;;;;5072668;28;20265;-70
2023/07/23 10:03:37;;;;;;;3.10;2.90;;;19.70;99.90;;;;;;5072399;28;20170;-72
2023/07/23 10:06:03;;;;;;;3.03;2.80;;;19.70;99.90;;;;;;5072407;28;20209;-72
2023/07/23 10:08:30;;;;;;;3.00;2.80;;;19.70;99.90;;;;;;5070318;28;20197;-72
2023/07/23 10:10:56;;;;;;;3.40;3.10;;;19.70;99.90;;;;;;5091984;28;20169;-71
2023/07/23 10:13:22;;;;;;;3.27;2.97;;;19.70;99.90;;;;;;5091203;28;20166;-73
2023/07/23 10:15:50;;;;;;;4.40;4.00;;;19.80;99.90;;;;;;5074257;28;20640;-72
2023/07/23 10:18:17;;;;;;;3.23;2.93;;;19.90;1.00;;;;;;5092104;28;20201;-72
2023/07/23 10:20:45;;;;;;;3.10;2.90;;;20.10;1.00;;;;;;5091449;28;20165;-72
2023/07/23 10:23:11;;;;;;;4.73;3.10;;;20.20;99.90;;;;;;5090793;28;20169;-72
2023/07/23 10:25:36;;;;;;;3.38;3.17;;;20.20;99.90;;;;;;5090443;28;20215;-72
2023/07/23 10:28:07;;;;;;;3.83;3.53;;;20.40;99.90;;;;;;5089816;28;20189;-73
2023/07/23 10:30:34;;;;;;;4.70;3.57;;;20.50;1.00;;;;;;5071527;28;20578;-72
2023/07/23 10:33:11;;;;;;;3.17;2.97;;;20.60;1.00;;;;;;5070669;28;20633;-72
2023/07/23 10:35:55;;;;;;;3.93;3.53;;;20.60;1.00;;;;;;5071687;28;20173;-70
2023/07/23 10:38:27;;;;;;;8.38;4.00;;;20.60;1.00;;;;;;5071745;28;20566;-72
2023/07/23 10:40:54;;;;;;;3.70;3.40;;;20.60;89.70;;;;;;5071610;28;20692;-72
2023/07/23 10:43:19;;;;;;;3.42;3.22;;;20.60;1.00;;;;;;5071284;28;20212;-72
2023/07/23 10:45:49;;;;;;;3.30;3.00;;;20.60;1.00;;;;;;5071707;28;20206;-73
2023/07/23 10:48:17;;;;;;;3.30;3.10;;;20.70;99.90;;;;;;5071430;28;20197;-72
2023/07/23 10:51:00;;;;;;;3.30;3.00;;;20.70;99.90;;;;;;5071679;28;20166;-74
2023/07/23 10:53:31;;;;;;;3.33;3.08;;;20.50;99.90;;;;;;5069503;28;20174;-73
2023/07/23 10:55:59;;;;;;;3.17;2.87;;;20.40;99.90;;;;;;5082561;28;20265;-72
2023/07/23 10:58:27;;;;;;;3.30;3.10;;;20.40;99.90;;;;;;5070747;28;20276;-72
2023/07/23 11:00:54;;;;;;;3.08;2.70;;;20.40;99.90;;;;;;5071251;28;20255;-73
2023/07/23 11:03:22;;;;;;;3.03;2.83;;;20.40;99.90;;;;;;5071175;28;20614;-73
2023/07/23 11:05:47;;;;;;;2.90;2.70;;;20.50;99.90;;;;;;5071383;28;20208;-73
2023/07/23 11:08:18;;;;;;;3.20;2.90;;;20.70;1.00;;;;;;5070577;28;20213;-72
2023/07/23 11:10:57;;;;;;;4.32;3.03;;;20.80;1.00;;;;;;5071532;28;20216;-70
2023/07/23 11:13:28;;;;;;;3.30;3.10;;;20.80;99.90;;;;;;5052920;28;20174;-72
2023/07/23 11:15:55;;;;;;;5.85;5.00;;;20.80;72.30;;;;;;5081894;28;20578;-71
2023/07/23 11:18:21;;;;;;;3.20;3.00;;;20.80;1.00;;;;;;5091126;28;20205;-72
2023/07/23 11:20:51;;;;;;;4.50;3.20;;;20.70;99.90;;;;;;5091973;28;20177;-72
2023/07/23 11:23:20;;;;;;;3.70;3.40;;;20.70;1.00;;;;;;5089193;28;20186;-73
2023/07/23 11:25:47;;;;;;;3.33;3.13;;;20.80;1.00;;;;;;5091654;28;20205;-73
2023/07/23 11:28:15;;;;;;;2.90;2.70;;;20.80;1.00;;;;;;5091358;28;20201;-73
2023/07/23 11:30:42;;;;;;;3.17;2.97;;;20.80;1.00;;;;;;5073276;28;20662;-73
2023/07/23 11:33:08;;;;;;;3.42;3.17;;;20.80;99.90;;;;;;5093657;28;20173;-73
2023/07/23 11:35:34;;;;;;;3.20;3.00;;;20.90;1.00;;;;;;5095088;28;20180;-71
2023/07/23 11:38:01;;;;;;;3.13;2.83;;;20.80;1.00;;;;;;5075857;28;20735;-74
2023/07/23 11:40:27;;;;;;;3.15;2.67;;;20.70;1.00;;;;;;5095116;28;20177;-73
2023/07/23 11:42:53;;;;;;;3.25;3.05;;;20.70;1.00;;;;;;5094657;28;20231;-73
2023/07/23 11:45:19;;;;;;;3.25;3.13;;;20.70;1.00;;;;;;5095386;28;20207;-73
2023/07/23 11:47:53;;;;;;;4.55;2.80;;;20.70;1.00;;;;;;5083908;28;20205;-73
2023/07/23 11:50:20;;;;;;;2.90;2.60;;;20.80;1.00;;;;;;5062998;28;20178;-71
2023/07/23 11:52:47;;;;;;;3.08;2.85;;;20.80;1.00;;;;;;5056622;28;20208;-72
2023/07/23 11:55:21;;;;;;;3.35;3.15;;;20.90;99.90;;;;;;5074746;28;20282;-70
2023/07/23 11:57:57;;;;;;;3.03;2.83;;;20.80;99.90;;;;;;5056713;28;20194;-71
2023/07/23 12:00:37;;;;;;;3.17;2.72;;;20.80;99.90;;;;;;5074207;28;20196;-72
2023/07/23 12:03:07;;;;;;;2.80;2.60;;;20.80;1.00;;;;;;5074306;28;20185;-74
2023/07/23 12:05:33;;;;;;;2.65;2.50;;;20.80;1.00;;;;;;5074608;28;20205;-72
2023/07/23 12:07:59;;;;;;;3.45;3.17;;;20.80;1.00;;;;;;5074391;28;20566;-73
2023/07/23 12:10:28;;;;;;;2.90;2.67;;;20.90;99.90;;;;;;5069964;28;20230;-74
2023/07/23 12:12:53;;;;;;;4.13;3.83;;;20.90;99.90;;;;;;5094678;28;20165;-72
2023/07/23 12:15:19;;;;;;;3.42;3.20;;;21.00;99.90;;;;;;5094765;28;20251;-72
2023/07/23 12:17:45;;;;;;;3.75;3.53;;;21.00;99.90;;;;;;5086232;28;20209;-73
2023/07/23 12:20:16;;;;;;;2.95;2.75;;;21.10;99.90;;;;;;5074220;28;20208;-73
2023/07/23 12:22:52;;;;;;;6.50;2.80;;;21.20;99.90;;;;;;5091690;28;20192;-74
2023/07/23 12:25:18;;;;;;;3.42;3.17;;;21.20;99.90;;;;;;5094123;28;20441;-74
2023/07/23 12:27:44;;;;;;;3.88;3.65;;;21.30;99.90;;;;;;5076185;28;20238;-72
2023/07/23 12:30:10;;;;;;;4.65;4.35;;;21.30;60.60;;;;;;5088544;28;20247;-72
2023/07/23 12:32:36;;;;;;;5.30;4.38;;;21.30;7.30;;;;;;5073929;28;20163;-74
2023/07/23 12:35:01;;;;;;;7.22;6.85;;;21.30;99.90;;;;;;5073949;28;20173;-73
2023/07/23 12:37:27;;;;;;;4.38;4.07;;;21.40;41.20;;;;;;5055846;28;20540;-72
2023/07/23 12:39:56;;;;;;;3.47;3.28;;;21.50;99.90;;;;;;5056029;28;20299;-74
2023/07/23 12:42:22;;;;;;;3.80;3.60;;;21.50;99.90;;;;;;5072878;28;20177;-72
2023/07/23 12:44:48;;;;;;;4.07;3.75;;;21.40;99.90;;;;;;5056995;28;20178;-74
2023/07/23 12:47:14;;;;;;;4.75;4.55;;;21.60;99.90;;;;;;5075563;28;20292;-74
2023/07/23 12:49:39;;;;;;;3.70;3.40;;;21.60;1.00;;;;;;5093758;28;20264;-72